Great Smoky Mtns National Park, NC

6:22 AM EDT on September 26, 2016 (GMT -0400)
North Asheville | | Change Station

Elev 2224 ft 35.61 °N, 82.55 °W | Updated 2 minutes ago

Mostly Cloudy
Mostly Cloudy
66.2 °F
Feels Like 66.2 °F
N
1.3
Wind Variable Wind from WSW
Gusts 2.7 mph

Today
High -- | Low -- °F
--% Chance of Precip.
Yesterday
High -- | Low -- °F
Precip. -- in
Pressure 30.07 in
Visibility 6.0 miles
Clouds Mostly Cloudy 2900 ft
Dew Point 62 °F
Humidity 85%
Rainfall 0.00 in
Snow Depth Not available.
7:21 AM 7:20 PM
Waning Crescent, 20% visible
METAR KAVL 260954Z AUTO 00000KT 6SM BR BKN029 19/17 A3015 RMK AO2 SLP181 T01940172
Pressure 30.07 in
Visibility 6.0 miles
Clouds Mostly Cloudy 2900 ft
Dew Point 62 °F
Humidity 85%
Rainfall 0.00 in
Snow Depth Not available.
7:21 AM 7:20 PM
Waning Crescent, 20% visible
METAR KAVL 260954Z AUTO 00000KT 6SM BR BKN029 19/17 A3015 RMK AO2 SLP181 T01940172

10-Day Weather Forecast

Almanac

Astronomy

Sep. 26, 2016 Rise Set
Actual Time
Civil Twilight
Nautical Twilight
Astronomical Twilight
Moon
Length of Visible Light
Length of Day
Tomorrow will be .
, % of the Moon is Illuminated

Today's Extremes

State Highs State Lows

Community

WunderPhotos

Upload Photos

1,941,852 photos uploaded!

WunderBlog® & News

Nearby

Air Quality

  Air Quality AQ Index Pollutant
Not available.

Snow Depth

Station Depth Elevation

Earthquake Activity

City Distance Mag. Time & Date
Minimum magnitude displayed is 2.5.

Coastal Water Temperatures

Place Temperature

Stations

Nearby Weather Stations

Station Location Temp. Windchill Dew Point Humidity Wind Precip. Elev Updated Type
                   

Watches & Warnings

There are currently no watches in effect.